createdAt,value
2022-08-24T00:03:00.968Z,2.30
2022-08-24T00:06:05.162Z,6.07
2022-08-24T00:09:09.133Z,5.67
2022-08-24T00:12:11.832Z,5.20
2022-08-24T00:15:18.233Z,7.13
2022-08-24T00:18:20.825Z,5.20
2022-08-24T00:21:23.641Z,3.10
2022-08-24T00:24:28.220Z,4.53
2022-08-24T00:27:30.896Z,8.67
2022-08-24T00:30:35.265Z,3.00
2022-08-24T00:33:38.418Z,3.23
2022-08-24T00:36:42.950Z,3.63
2022-08-24T00:39:46.934Z,7.80
2022-08-24T00:42:50.659Z,5.90
2022-08-24T00:46:06.047Z,2.77
2022-08-24T00:49:13.210Z,4.77
2022-08-24T00:52:20.401Z,3.63
2022-08-24T00:55:28.940Z,1.93
2022-08-24T00:58:36.807Z,3.33
2022-08-24T01:01:42.966Z,4.47
2022-08-24T01:04:50.479Z,3.37
2022-08-24T01:07:53.510Z,4.77
2022-08-24T01:11:02.158Z,8.57
2022-08-24T01:14:06.084Z,4.93
2022-08-24T01:17:26.448Z,4.03
2022-08-24T01:20:29.145Z,8.03
2022-08-24T01:23:39.569Z,8.80
2022-08-24T01:26:46.933Z,2.83
2022-08-24T01:29:51.063Z,8.07
2022-08-24T01:32:55.422Z,6.70
2022-08-24T01:36:02.024Z,7.07
2022-08-24T01:39:12.175Z,3.57
2022-08-24T01:42:15.328Z,4.07
2022-08-24T01:45:20.130Z,3.37
2022-08-24T01:48:23.630Z,6.17
2022-08-24T01:51:29.900Z,4.53
2022-08-24T01:54:34.178Z,6.53
2022-08-24T01:57:36.757Z,5.50
2022-08-24T02:00:39.686Z,6.27
2022-08-24T02:03:42.260Z,4.17
2022-08-24T02:06:45.660Z,6.23
2022-08-24T02:09:49.775Z,5.07
2022-08-24T02:12:58.612Z,4.07
2022-08-24T02:16:01.395Z,6.33
2022-08-24T02:19:04.186Z,6.50
2022-08-24T02:22:07.322Z,3.93
2022-08-24T02:25:11.387Z,7.43
2022-08-24T02:28:16.986Z,6.17
2022-08-24T02:31:19.600Z,4.47
2022-08-24T02:34:22.441Z,6.57
2022-08-24T02:37:25.001Z,3.87
2022-08-24T02:40:29.747Z,5.43
2022-08-24T02:43:32.491Z,7.27
2022-08-24T02:46:42.630Z,6.50
2022-08-24T02:49:45.621Z,6.53
2022-08-24T02:52:48.612Z,6.70
2022-08-24T02:55:53.022Z,3.83
2022-08-24T02:58:55.626Z,9.83
2022-08-24T03:01:58.456Z,4.57
2022-08-24T03:05:01.555Z,5.97
2022-08-24T03:08:05.126Z,6.07
2022-08-24T03:11:09.393Z,7.03
2022-08-24T03:14:12.266Z,6.77
2022-08-24T03:17:14.898Z,6.70
2022-08-24T03:20:21.121Z,4.53
2022-08-24T03:23:24.580Z,5.77
2022-08-24T03:26:28.789Z,5.23
2022-08-24T03:29:33.703Z,8.63
2022-08-24T03:32:36.573Z,3.80
2022-08-24T03:35:39.665Z,4.27
2022-08-24T03:38:42.691Z,6.50
2022-08-24T03:41:46.661Z,6.37
2022-08-24T03:44:49.238Z,5.83
2022-08-24T03:47:52.542Z,3.50
2022-08-24T03:50:55.702Z,4.67
2022-08-24T03:54:00.705Z,4.40
2022-08-24T03:57:04.784Z,9.40
2022-08-24T04:00:11.662Z,4.87
2022-08-24T04:03:15.225Z,5.63
2022-08-24T04:06:19.951Z,9.67
2022-08-24T04:09:22.524Z,8.57
2022-08-24T04:12:26.533Z,13.67
2022-08-24T04:15:31.622Z,4.57
2022-08-24T04:18:34.303Z,8.07
2022-08-24T04:21:38.116Z,7.73
2022-08-24T04:24:40.741Z,10.07
2022-08-24T04:27:44.697Z,7.10
2022-08-24T04:30:50.344Z,6.97
2022-08-24T04:33:53.994Z,5.63
2022-08-24T04:36:56.771Z,6.03
2022-08-24T04:39:59.475Z,4.43
2022-08-24T04:43:03.661Z,5.70
2022-08-24T04:46:08.395Z,6.07
2022-08-24T04:49:11.407Z,5.57
2022-08-24T04:52:13.985Z,6.33
2022-08-24T04:55:16.646Z,7.63
2022-08-24T04:58:20.673Z,7.03
2022-08-24T05:01:25.303Z,7.43
2022-08-24T05:04:27.943Z,9.47
2022-08-24T05:07:32.157Z,7.43
2022-08-24T05:10:34.810Z,6.13
2022-08-24T05:13:39.136Z,7.73
2022-08-24T05:16:52.431Z,6.43
2022-08-24T05:19:55.520Z,6.20
2022-08-24T05:23:02.514Z,9.27
2022-08-24T05:26:08.149Z,5.80
2022-08-24T05:29:12.446Z,8.13
2022-08-24T05:32:15.202Z,12.20
2022-08-24T05:35:17.901Z,8.53
2022-08-24T05:38:20.497Z,11.23
2022-08-24T05:41:23.878Z,8.20
2022-08-24T05:44:31.142Z,9.77
2022-08-24T05:47:34.604Z,21.40
2022-08-24T05:50:37.822Z,16.67
2022-08-24T05:53:41.619Z,6.53
2022-08-24T05:56:44.709Z,9.40
2022-08-24T05:59:48.798Z,10.90
2022-08-24T06:02:52.819Z,13.90
2022-08-24T06:05:55.942Z,7.20
2022-08-24T06:09:00.344Z,9.23
2022-08-24T06:12:03.398Z,10.17
2022-08-24T06:15:08.242Z,10.40
2022-08-24T06:18:11.002Z,7.77
2022-08-24T06:21:16.983Z,6.53
2022-08-24T06:24:40.947Z,9.80
2022-08-24T06:27:42.645Z,9.20
2022-08-24T06:30:46.602Z,6.00
2022-08-24T06:33:49.255Z,8.03
2022-08-24T06:36:52.749Z,12.33
2022-08-24T06:39:58.113Z,10.97
2022-08-24T06:43:04.293Z,5.03
2022-08-24T06:46:08.567Z,7.20
2022-08-24T06:49:11.238Z,7.37
2022-08-24T06:52:13.885Z,10.57
2022-08-24T06:55:16.594Z,6.10
2022-08-24T06:58:19.532Z,8.00
2022-08-24T07:01:25.735Z,3.90
2022-08-24T07:04:28.934Z,5.07
2022-08-24T07:07:31.537Z,8.67
2022-08-24T07:10:34.690Z,8.17
2022-08-24T07:13:37.379Z,5.28
2022-08-24T07:16:41.309Z,8.57
2022-08-24T07:19:43.877Z,5.93
2022-08-24T07:22:46.641Z,5.63
2022-08-24T07:25:54.217Z,4.53
2022-08-24T07:29:05.344Z,7.75
2022-08-24T07:32:10.105Z,7.75
2022-08-24T07:35:12.716Z,7.97
2022-08-24T07:38:15.343Z,9.65
2022-08-24T07:41:40.384Z,7.45
2022-08-24T07:44:40.789Z,5.18
2022-08-24T07:47:54.677Z,6.93
2022-08-24T07:50:59.578Z,10.82
2022-08-24T07:54:03.655Z,7.43
2022-08-24T07:57:09.919Z,5.40
2022-08-24T08:00:16.957Z,7.00
2022-08-24T08:03:21.789Z,4.60
2022-08-24T08:06:24.382Z,6.18
2022-08-24T08:09:27.022Z,8.45
2022-08-24T08:12:29.636Z,4.35
2022-08-24T08:15:32.860Z,7.35
2022-08-24T08:18:37.094Z,5.85
2022-08-24T08:22:00.288Z,7.13
2022-08-24T08:25:02.896Z,5.93
2022-08-24T08:28:18.459Z,6.03
2022-08-24T08:31:28.245Z,5.90
2022-08-24T08:34:32.347Z,6.78
2022-08-24T08:40:57.036Z,10.18
2022-08-24T08:44:04.754Z,6.53
2022-08-24T08:47:23.309Z,6.85
2022-08-24T08:50:32.682Z,5.82
2022-08-24T08:54:06.653Z,3.50
2022-08-24T08:57:51.209Z,6.00
2022-08-24T09:01:05.148Z,10.95
2022-08-24T09:04:22.864Z,7.57
2022-08-24T09:07:43.747Z,5.80
2022-08-24T09:10:56.639Z,4.65
2022-08-24T09:14:36.130Z,7.72
2022-08-24T09:18:04.714Z,5.97
2022-08-24T09:21:24.012Z,6.32
2022-08-24T09:24:42.037Z,7.43
2022-08-24T09:28:00.641Z,9.05
2022-08-24T09:31:22.916Z,6.35
2022-08-24T09:34:39.941Z,10.55
2022-08-24T09:37:58.779Z,5.70
2022-08-24T09:41:25.080Z,5.78
2022-08-24T09:44:48.173Z,9.90
2022-08-24T09:48:09.502Z,5.45
2022-08-24T09:51:46.948Z,8.32
2022-08-24T09:55:26.670Z,5.88
2022-08-24T09:58:50.397Z,4.50
2022-08-24T10:02:14.197Z,8.13
2022-08-24T10:05:27.820Z,5.95
2022-08-24T10:08:45.298Z,4.05
2022-08-24T10:11:56.214Z,7.03
2022-08-24T10:15:06.330Z,4.57
2022-08-24T10:18:38.623Z,6.50
2022-08-24T10:21:54.082Z,4.25
2022-08-24T10:25:10.410Z,8.32
2022-08-24T10:28:39.989Z,5.97
2022-08-24T10:32:01.034Z,7.65
2022-08-24T10:35:09.429Z,8.85
2022-08-24T10:38:57.725Z,8.05
2022-08-24T10:42:54.573Z,6.53
2022-08-24T10:46:24.085Z,4.10
2022-08-24T10:50:20.180Z,4.43
2022-08-24T10:53:27.355Z,7.25
2022-08-24T10:56:39.882Z,6.07
2022-08-24T10:59:54.938Z,6.38
2022-08-24T11:03:11.946Z,6.47
2022-08-24T11:06:16.315Z,10.15
2022-08-24T11:09:20.272Z,3.17
2022-08-24T11:12:27.370Z,8.73
2022-08-24T11:15:29.977Z,5.57
2022-08-24T11:18:49.373Z,3.75
2022-08-24T11:21:53.768Z,15.27
2022-08-24T11:25:00.211Z,7.63
2022-08-24T11:28:09.568Z,8.40
2022-08-24T11:31:14.306Z,4.75
2022-08-24T11:34:19.165Z,7.68
2022-08-24T11:37:29.126Z,4.75
2022-08-24T11:40:40.750Z,4.55
2022-08-24T11:43:58.926Z,5.43
2022-08-24T11:47:11.563Z,6.47
2022-08-24T11:50:25.581Z,5.05
2022-08-24T11:57:00.025Z,3.28
2022-08-24T12:00:07.333Z,4.72
2022-08-24T12:03:28.190Z,5.40
2022-08-24T12:06:43.081Z,6.60
2022-08-24T12:10:00.725Z,5.07
2022-08-24T12:13:11.698Z,3.75
2022-08-24T12:16:22.263Z,4.65
2022-08-24T12:19:29.688Z,5.95
2022-08-24T12:22:33.546Z,6.50
2022-08-24T12:25:53.692Z,3.83
2022-08-24T12:29:03.636Z,2.95
2022-08-24T12:32:11.190Z,3.67
2022-08-24T12:35:19.390Z,19.10
2022-08-24T12:38:26.897Z,5.53
2022-08-24T12:41:34.338Z,5.60
2022-08-24T12:44:46.769Z,16.40
2022-08-24T12:47:55.006Z,7.00
2022-08-24T12:51:11.943Z,4.63
2022-08-24T12:54:40.389Z,8.43
2022-08-24T12:57:55.052Z,4.53
2022-08-24T13:01:06.061Z,5.63
2022-08-24T13:04:16.478Z,6.07
2022-08-24T13:07:30.762Z,7.22
2022-08-24T13:10:42.194Z,7.20
2022-08-24T13:14:05.452Z,5.55
2022-08-24T13:17:13.498Z,5.32
2022-08-24T13:20:21.296Z,3.05
2022-08-24T13:23:24.963Z,3.35
2022-08-24T13:26:27.668Z,6.80
2022-08-24T13:29:35.492Z,6.65
2022-08-24T13:32:44.281Z,6.63
2022-08-24T13:36:16.695Z,13.80
2022-08-24T13:39:40.381Z,2.95
2022-08-24T13:43:03.981Z,5.63
2022-08-24T13:46:20.116Z,9.13
2022-08-24T13:49:38.820Z,3.78
2022-08-24T13:53:04.848Z,4.00
2022-08-24T13:56:32.597Z,3.08
2022-08-24T13:59:56.852Z,4.82
2022-08-24T14:03:14.983Z,7.95
2022-08-24T14:06:28.480Z,10.68
2022-08-24T14:09:41.975Z,3.88
2022-08-24T14:13:07.635Z,4.55
2022-08-24T14:16:43.777Z,3.70
2022-08-24T14:20:02.166Z,10.13
2022-08-24T14:23:17.835Z,12.13
2022-08-24T14:27:01.957Z,2.78
2022-08-24T14:30:39.659Z,7.10
2022-08-24T14:33:50.626Z,6.15
2022-08-24T14:36:59.769Z,3.63
2022-08-24T14:40:17.944Z,4.57
2022-08-24T14:43:30.981Z,5.28
2022-08-24T14:46:41.582Z,4.88
2022-08-24T14:49:58.405Z,5.03
2022-08-24T14:53:18.812Z,7.07
2022-08-24T14:56:43.914Z,5.30
2022-08-24T14:59:58.613Z,4.10
2022-08-24T15:03:25.810Z,4.57
2022-08-24T15:06:38.439Z,4.47
2022-08-24T15:09:44.887Z,10.48
2022-08-24T15:12:59.039Z,4.18
2022-08-24T15:16:11.730Z,3.53
2022-08-24T15:19:23.007Z,3.05
2022-08-24T15:22:40.959Z,3.67
2022-08-24T15:25:51.144Z,3.90
2022-08-24T15:28:56.951Z,3.60
2022-08-24T15:32:05.055Z,3.20
2022-08-24T15:35:08.057Z,6.13
2022-08-24T15:38:22.288Z,3.78
2022-08-24T15:41:31.025Z,5.10
2022-08-24T15:44:36.725Z,5.68
2022-08-24T15:47:41.651Z,3.33
2022-08-24T15:50:48.977Z,4.82
2022-08-24T15:53:51.601Z,6.03
2022-08-24T15:56:57.428Z,4.47
2022-08-24T16:00:12.697Z,5.60
2022-08-24T16:03:21.453Z,8.50
2022-08-24T16:06:27.682Z,4.57
2022-08-24T16:09:37.573Z,4.38
2022-08-24T16:12:40.574Z,4.60
2022-08-24T16:15:51.223Z,6.43
2022-08-24T16:18:58.007Z,5.20
2022-08-24T16:22:03.826Z,5.13
2022-08-24T16:25:15.769Z,4.65
2022-08-24T16:28:35.703Z,8.57
2022-08-24T16:31:51.767Z,6.55
2022-08-24T16:34:56.849Z,4.57
2022-08-24T16:37:59.543Z,2.78
2022-08-24T16:41:04.055Z,3.88
2022-08-24T16:44:06.705Z,7.13
2022-08-24T16:47:11.230Z,6.28
2022-08-24T16:50:15.031Z,30.73
2022-08-24T16:53:17.686Z,6.55
2022-08-24T16:56:20.390Z,4.35
2022-08-24T16:59:27.469Z,6.10
2022-08-24T17:02:31.494Z,10.10
2022-08-24T17:05:34.717Z,7.10
2022-08-24T17:08:37.390Z,5.63
2022-08-24T17:11:40.361Z,2.50
2022-08-24T17:14:44.308Z,4.63
2022-08-24T17:17:56.117Z,7.15
2022-08-24T17:21:01.234Z,5.53
2022-08-24T17:24:04.366Z,5.70
2022-08-24T17:27:07.198Z,5.68
2022-08-24T17:30:11.306Z,3.80
2022-08-24T17:33:15.236Z,6.60
2022-08-24T17:36:21.219Z,7.90
2022-08-24T17:39:26.736Z,9.93
2022-08-24T17:42:49.525Z,5.93
2022-08-24T17:45:53.177Z,11.15
2022-08-24T17:48:57.796Z,7.15
2022-08-24T17:52:00.611Z,16.17
2022-08-24T17:55:03.229Z,22.85
2022-08-24T17:58:05.833Z,19.85
2022-08-24T18:01:08.452Z,16.77
2022-08-24T18:04:12.629Z,10.63
2022-08-24T18:07:35.864Z,8.68
2022-08-24T18:10:42.523Z,9.65
2022-08-24T18:13:45.109Z,8.70
2022-08-24T18:16:54.014Z,8.73
2022-08-24T18:20:01.070Z,18.83
2022-08-24T18:23:03.931Z,24.77
2022-08-24T18:26:09.320Z,23.63
2022-08-24T18:29:15.746Z,7.30
2022-08-24T18:32:18.337Z,7.80
2022-08-24T18:35:22.796Z,6.75
2022-08-24T18:38:26.704Z,6.25
2022-08-24T18:41:35.682Z,6.15
2022-08-24T18:44:39.405Z,7.55
2022-08-24T18:47:42.323Z,20.73
2022-08-24T18:50:46.255Z,23.73
2022-08-24T18:53:49.214Z,27.88
2022-08-24T18:56:52.250Z,49.45
2022-08-24T18:59:55.038Z,47.95
2022-08-24T19:03:02.221Z,35.80
2022-08-24T19:06:07.296Z,24.83
2022-08-24T19:09:09.929Z,15.82
2022-08-24T19:12:13.169Z,15.65
2022-08-24T19:15:31.923Z,9.90
2022-08-24T19:18:39.313Z,7.72
2022-08-24T19:21:43.321Z,7.03
2022-08-24T19:24:47.034Z,8.60
2022-08-24T19:27:53.678Z,7.15
2022-08-24T19:30:58.086Z,9.50
2022-08-24T19:34:03.535Z,8.38
2022-08-24T19:37:07.894Z,6.68
2022-08-24T19:40:11.472Z,7.20
2022-08-24T19:43:14.910Z,7.00
2022-08-24T19:46:17.915Z,3.85
2022-08-24T19:49:20.850Z,7.03
2022-08-24T19:52:25.115Z,5.03
2022-08-24T19:55:28.029Z,6.55
2022-08-24T19:58:38.048Z,6.78
2022-08-24T20:01:40.711Z,6.72
2022-08-24T20:04:43.319Z,8.30
2022-08-24T20:07:47.745Z,13.50
2022-08-24T20:10:52.851Z,16.80
2022-08-24T20:13:55.517Z,18.52
2022-08-24T20:16:58.136Z,9.25
2022-08-24T20:20:02.148Z,5.90
2022-08-24T20:23:07.157Z,12.43
2022-08-24T20:26:11.936Z,6.32
2022-08-24T20:29:15.106Z,14.68
2022-08-24T20:32:18.579Z,14.10
2022-08-24T20:35:21.229Z,10.23
2022-08-24T20:38:25.727Z,8.25
2022-08-24T20:41:35.377Z,12.70
2022-08-24T20:44:37.948Z,9.55
2022-08-24T20:47:44.878Z,5.95
2022-08-24T20:50:47.650Z,8.27
2022-08-24T20:53:51.593Z,8.27
2022-08-24T20:56:54.220Z,6.25
2022-08-24T20:59:56.781Z,6.45
2022-08-24T21:02:59.411Z,10.50
2022-08-24T21:06:02.571Z,9.03
2022-08-24T21:09:07.361Z,6.50
2022-08-24T21:12:16.700Z,7.70
2022-08-24T21:15:20.846Z,9.03
2022-08-24T21:18:23.404Z,17.80
2022-08-24T21:21:28.435Z,6.70
2022-08-24T21:24:32.362Z,5.70
2022-08-24T21:27:41.566Z,6.33
2022-08-24T21:30:44.177Z,6.93
2022-08-24T21:34:04.398Z,7.30
2022-08-24T21:37:07.216Z,6.17
2022-08-24T21:40:12.428Z,6.20
2022-08-24T21:43:17.860Z,5.30
2022-08-24T21:46:21.964Z,4.30
2022-08-24T21:49:25.030Z,7.30
2022-08-24T21:52:27.693Z,5.53
2022-08-24T21:55:31.652Z,6.73
2022-08-24T21:58:34.295Z,7.13
2022-08-24T22:01:38.672Z,12.03
2022-08-24T22:04:41.473Z,8.43
2022-08-24T22:07:44.388Z,5.57
2022-08-24T22:10:50.205Z,7.27
2022-08-24T22:13:53.919Z,6.70
2022-08-24T22:16:56.511Z,4.33
2022-08-24T22:19:59.106Z,7.90
2022-08-24T22:23:01.710Z,8.43
2022-08-24T22:26:06.645Z,6.37
2022-08-24T22:29:11.115Z,11.30
2022-08-24T22:32:13.719Z,9.00
2022-08-24T22:35:16.365Z,7.27
2022-08-24T22:38:19.439Z,8.43
2022-08-24T22:41:23.683Z,5.20
2022-08-24T22:44:27.686Z,17.27
2022-08-24T22:47:31.677Z,10.87
2022-08-24T22:50:34.295Z,7.73
2022-08-24T22:53:37.012Z,7.87
2022-08-24T22:56:43.593Z,5.00
2022-08-24T22:59:46.210Z,7.40
2022-08-24T23:02:48.772Z,7.40
2022-08-24T23:05:51.318Z,12.00
2022-08-24T23:08:53.965Z,9.23
2022-08-24T23:11:58.239Z,6.80
2022-08-24T23:15:01.315Z,8.70
2022-08-24T23:18:23.884Z,7.67
2022-08-24T23:21:25.955Z,6.47
2022-08-24T23:24:30.352Z,5.27
2022-08-24T23:27:38.408Z,12.27
2022-08-24T23:30:41.516Z,5.57
2022-08-24T23:33:44.206Z,8.40
2022-08-24T23:36:46.965Z,4.40
2022-08-24T23:39:49.574Z,4.47
2022-08-24T23:42:53.504Z,7.47
2022-08-24T23:45:56.509Z,7.73
2022-08-24T23:49:03.327Z,6.97
2022-08-24T23:52:06.463Z,9.07
2022-08-24T23:55:20.889Z,9.43
2022-08-24T23:58:26.192Z,8.50
